sensor_id;sensor_type;location;lat;lon;timestamp;P1;durP1;ratioP1;P2;durP2;ratioP2
14396;SDS011;50653;47.810;13.022;2023-03-24T00:01:50;4.53;;;4.13;;
14396;SDS011;50653;47.810;13.022;2023-03-24T00:04:16;9.13;;;5.07;;
14396;SDS011;50653;47.810;13.022;2023-03-24T00:06:42;5.27;;;4.90;;
14396;SDS011;50653;47.810;13.022;2023-03-24T00:09:09;5.33;;;4.77;;
14396;SDS011;50653;47.810;13.022;2023-03-24T00:11:35;5.10;;;4.63;;
14396;SDS011;50653;47.810;13.022;2023-03-24T00:14:01;4.90;;;4.53;;
14396;SDS011;50653;47.810;13.022;2023-03-24T00:16:28;4.63;;;4.33;;
14396;SDS011;50653;47.810;13.022;2023-03-24T00:18:54;4.90;;;4.60;;
14396;SDS011;50653;47.810;13.022;2023-03-24T00:21:23;5.40;;;5.00;;
14396;SDS011;50653;47.810;13.022;2023-03-24T00:23:50;5.93;;;4.73;;
14396;SDS011;50653;47.810;13.022;2023-03-24T00:26:18;5.60;;;4.93;;
14396;SDS011;50653;47.810;13.022;2023-03-24T00:28:45;5.20;;;4.70;;
14396;SDS011;50653;47.810;13.022;2023-03-24T00:31:13;4.57;;;4.30;;
14396;SDS011;50653;47.810;13.022;2023-03-24T00:33:41;5.80;;;4.23;;
14396;SDS011;50653;47.810;13.022;2023-03-24T00:36:08;4.50;;;4.00;;
14396;SDS011;50653;47.810;13.022;2023-03-24T00:38:39;4.80;;;4.40;;
14396;SDS011;50653;47.810;13.022;2023-03-24T00:41:06;4.97;;;4.70;;
14396;SDS011;50653;47.810;13.022;2023-03-24T00:43:33;5.47;;;4.97;;
14396;SDS011;50653;47.810;13.022;2023-03-24T00:46:03;10.10;;;5.03;;
14396;SDS011;50653;47.810;13.022;2023-03-24T00:48:35;5.80;;;5.30;;
14396;SDS011;50653;47.810;13.022;2023-03-24T00:51:03;4.83;;;4.57;;
14396;SDS011;50653;47.810;13.022;2023-03-24T00:53:32;7.37;;;5.73;;
14396;SDS011;50653;47.810;13.022;2023-03-24T00:55:59;6.03;;;4.93;;
14396;SDS011;50653;47.810;13.022;2023-03-24T00:58:25;6.43;;;4.60;;
14396;SDS011;50653;47.810;13.022;2023-03-24T01:00:55;5.93;;;5.33;;
14396;SDS011;50653;47.810;13.022;2023-03-24T01:03:22;4.87;;;4.47;;
14396;SDS011;50653;47.810;13.022;2023-03-24T01:05:52;4.70;;;4.30;;
14396;SDS011;50653;47.810;13.022;2023-03-24T01:08:22;4.40;;;4.10;;
14396;SDS011;50653;47.810;13.022;2023-03-24T01:10:50;5.90;;;3.37;;
14396;SDS011;50653;47.810;13.022;2023-03-24T01:13:24;4.67;;;4.37;;
14396;SDS011;50653;47.810;13.022;2023-03-24T01:15:52;6.73;;;4.73;;
14396;SDS011;50653;47.810;13.022;2023-03-24T01:18:19;7.07;;;4.70;;
14396;SDS011;50653;47.810;13.022;2023-03-24T01:20:47;4.83;;;4.53;;
14396;SDS011;50653;47.810;13.022;2023-03-24T01:23:14;4.50;;;4.10;;
14396;SDS011;50653;47.810;13.022;2023-03-24T01:25:43;5.93;;;4.50;;
14396;SDS011;50653;47.810;13.022;2023-03-24T01:28:13;4.93;;;4.43;;
14396;SDS011;50653;47.810;13.022;2023-03-24T01:30:41;4.10;;;3.70;;
14396;SDS011;50653;47.810;13.022;2023-03-24T01:33:08;3.97;;;3.60;;
14396;SDS011;50653;47.810;13.022;2023-03-24T01:35:34;5.00;;;4.77;;
14396;SDS011;50653;47.810;13.022;2023-03-24T01:38:03;5.73;;;5.20;;
14396;SDS011;50653;47.810;13.022;2023-03-24T01:40:36;5.60;;;5.20;;
14396;SDS011;50653;47.810;13.022;2023-03-24T01:43:03;4.10;;;3.90;;
14396;SDS011;50653;47.810;13.022;2023-03-24T01:48:24;7.00;;;4.17;;
14396;SDS011;50653;47.810;13.022;2023-03-24T01:51:01;6.30;;;5.00;;
14396;SDS011;50653;47.810;13.022;2023-03-24T01:53:39;11.30;;;4.13;;
14396;SDS011;50653;47.810;13.022;2023-03-24T01:56:11;4.83;;;4.50;;
14396;SDS011;50653;47.810;13.022;2023-03-24T01:58:42;6.77;;;3.93;;
14396;SDS011;50653;47.810;13.022;2023-03-24T02:01:18;3.97;;;3.60;;
14396;SDS011;50653;47.810;13.022;2023-03-24T02:04:08;4.70;;;4.40;;
14396;SDS011;50653;47.810;13.022;2023-03-24T02:06:37;4.03;;;3.70;;
14396;SDS011;50653;47.810;13.022;2023-03-24T02:09:08;4.43;;;4.03;;
14396;SDS011;50653;47.810;13.022;2023-03-24T02:11:36;4.83;;;4.53;;
14396;SDS011;50653;47.810;13.022;2023-03-24T02:14:04;3.83;;;3.53;;
14396;SDS011;50653;47.810;13.022;2023-03-24T02:22:32;4.63;;;3.47;;
14396;SDS011;50653;47.810;13.022;2023-03-24T02:25:13;2.80;;;2.60;;
14396;SDS011;50653;47.810;13.022;2023-03-24T02:46:33;3.30;;;3.10;;
14396;SDS011;50653;47.810;13.022;2023-03-24T02:52:00;3.73;;;2.80;;
14396;SDS011;50653;47.810;13.022;2023-03-24T02:54:46;3.00;;;2.80;;
14396;SDS011;50653;47.810;13.022;2023-03-24T03:03:07;3.27;;;2.97;;
14396;SDS011;50653;47.810;13.022;2023-03-24T03:05:41;4.33;;;2.87;;
14396;SDS011;50653;47.810;13.022;2023-03-24T03:08:13;3.07;;;2.87;;
14396;SDS011;50653;47.810;13.022;2023-03-24T03:10:42;3.40;;;2.90;;
14396;SDS011;50653;47.810;13.022;2023-03-24T03:13:13;3.20;;;3.00;;
14396;SDS011;50653;47.810;13.022;2023-03-24T03:15:46;4.20;;;3.47;;
14396;SDS011;50653;47.810;13.022;2023-03-24T03:18:27;3.87;;;3.57;;
14396;SDS011;50653;47.810;13.022;2023-03-24T03:21:18;6.57;;;3.13;;
14396;SDS011;50653;47.810;13.022;2023-03-24T03:23:55;3.90;;;3.17;;
14396;SDS011;50653;47.810;13.022;2023-03-24T03:26:24;4.10;;;3.50;;
14396;SDS011;50653;47.810;13.022;2023-03-24T03:28:55;4.57;;;4.10;;
14396;SDS011;50653;47.810;13.022;2023-03-24T03:31:28;3.30;;;3.00;;
14396;SDS011;50653;47.810;13.022;2023-03-24T03:39:37;6.27;;;3.53;;
14396;SDS011;50653;47.810;13.022;2023-03-24T03:42:09;5.57;;;3.57;;
14396;SDS011;50653;47.810;13.022;2023-03-24T03:44:36;5.37;;;3.13;;
14396;SDS011;50653;47.810;13.022;2023-03-24T03:47:02;3.10;;;2.80;;
14396;SDS011;50653;47.810;13.022;2023-03-24T03:49:37;3.53;;;3.03;;
14396;SDS011;50653;47.810;13.022;2023-03-24T03:52:03;3.33;;;3.03;;
14396;SDS011;50653;47.810;13.022;2023-03-24T03:54:29;3.23;;;3.03;;
14396;SDS011;50653;47.810;13.022;2023-03-24T03:56:57;3.33;;;3.13;;
14396;SDS011;50653;47.810;13.022;2023-03-24T03:59:30;3.80;;;3.50;;
14396;SDS011;50653;47.810;13.022;2023-03-24T04:04:55;4.00;;;2.57;;
14396;SDS011;50653;47.810;13.022;2023-03-24T04:16:40;3.47;;;3.17;;
14396;SDS011;50653;47.810;13.022;2023-03-24T04:25:31;3.07;;;2.97;;
14396;SDS011;50653;47.810;13.022;2023-03-24T04:28:08;6.20;;;3.40;;
14396;SDS011;50653;47.810;13.022;2023-03-24T04:39:30;4.33;;;3.50;;
14396;SDS011;50653;47.810;13.022;2023-03-24T04:42:06;3.07;;;2.87;;
14396;SDS011;50653;47.810;13.022;2023-03-24T04:44:37;5.63;;;3.63;;
14396;SDS011;50653;47.810;13.022;2023-03-24T04:47:25;3.60;;;3.30;;
14396;SDS011;50653;47.810;13.022;2023-03-24T04:50:05;3.73;;;3.43;;
14396;SDS011;50653;47.810;13.022;2023-03-24T04:52:36;4.00;;;3.70;;
14396;SDS011;50653;47.810;13.022;2023-03-24T04:55:24;3.23;;;3.03;;
14396;SDS011;50653;47.810;13.022;2023-03-24T04:57:49;4.13;;;2.90;;
14396;SDS011;50653;47.810;13.022;2023-03-24T05:00:16;5.07;;;2.47;;
14396;SDS011;50653;47.810;13.022;2023-03-24T05:02:43;3.30;;;3.10;;
14396;SDS011;50653;47.810;13.022;2023-03-24T05:05:15;3.03;;;2.83;;
14396;SDS011;50653;47.810;13.022;2023-03-24T05:07:44;3.73;;;2.90;;
14396;SDS011;50653;47.810;13.022;2023-03-24T05:10:13;3.70;;;3.50;;
14396;SDS011;50653;47.810;13.022;2023-03-24T05:12:46;3.87;;;3.57;;
14396;SDS011;50653;47.810;13.022;2023-03-24T05:15:31;3.47;;;3.20;;
14396;SDS011;50653;47.810;13.022;2023-03-24T05:18:13;5.07;;;4.57;;
14396;SDS011;50653;47.810;13.022;2023-03-24T05:20:39;3.93;;;3.73;;
14396;SDS011;50653;47.810;13.022;2023-03-24T05:23:13;4.10;;;3.90;;
14396;SDS011;50653;47.810;13.022;2023-03-24T05:25:41;6.87;;;6.30;;
14396;SDS011;50653;47.810;13.022;2023-03-24T05:28:07;5.60;;;4.30;;
14396;SDS011;50653;47.810;13.022;2023-03-24T05:30:33;5.00;;;4.50;;
14396;SDS011;50653;47.810;13.022;2023-03-24T05:33:09;3.70;;;3.50;;
14396;SDS011;50653;47.810;13.022;2023-03-24T05:35:35;5.73;;;3.30;;
14396;SDS011;50653;47.810;13.022;2023-03-24T05:38:01;9.03;;;4.63;;
14396;SDS011;50653;47.810;13.022;2023-03-24T05:40:27;4.03;;;3.37;;
14396;SDS011;50653;47.810;13.022;2023-03-24T05:43:12;3.83;;;3.63;;
14396;SDS011;50653;47.810;13.022;2023-03-24T05:45:43;6.70;;;3.83;;
14396;SDS011;50653;47.810;13.022;2023-03-24T05:48:16;5.30;;;4.83;;
14396;SDS011;50653;47.810;13.022;2023-03-24T05:51:01;4.83;;;4.40;;
14396;SDS011;50653;47.810;13.022;2023-03-24T05:53:27;5.20;;;4.77;;
14396;SDS011;50653;47.810;13.022;2023-03-24T05:56:10;5.73;;;5.23;;
14396;SDS011;50653;47.810;13.022;2023-03-24T05:59:03;5.47;;;4.97;;
14396;SDS011;50653;47.810;13.022;2023-03-24T06:01:49;6.30;;;4.60;;
14396;SDS011;50653;47.810;13.022;2023-03-24T06:04:46;4.20;;;3.83;;
14396;SDS011;50653;47.810;13.022;2023-03-24T06:07:17;3.47;;;3.27;;
14396;SDS011;50653;47.810;13.022;2023-03-24T06:09:44;3.10;;;2.90;;
14396;SDS011;50653;47.810;13.022;2023-03-24T06:12:15;3.80;;;3.50;;
14396;SDS011;50653;47.810;13.022;2023-03-24T06:14:53;4.27;;;3.87;;
14396;SDS011;50653;47.810;13.022;2023-03-24T06:17:22;3.83;;;3.53;;
14396;SDS011;50653;47.810;13.022;2023-03-24T06:19:50;2.87;;;2.67;;
14396;SDS011;50653;47.810;13.022;2023-03-24T06:22:26;2.57;;;2.40;;
14396;SDS011;50653;47.810;13.022;2023-03-24T06:24:52;7.33;;;3.30;;
14396;SDS011;50653;47.810;13.022;2023-03-24T06:27:21;4.40;;;2.70;;
14396;SDS011;50653;47.810;13.022;2023-03-24T06:29:51;4.47;;;3.23;;
14396;SDS011;50653;47.810;13.022;2023-03-24T06:32:18;3.93;;;3.63;;
14396;SDS011;50653;47.810;13.022;2023-03-24T06:34:44;4.83;;;4.43;;
14396;SDS011;50653;47.810;13.022;2023-03-24T06:37:15;8.23;;;3.37;;
14396;SDS011;50653;47.810;13.022;2023-03-24T06:39:41;4.83;;;3.83;;
14396;SDS011;50653;47.810;13.022;2023-03-24T06:42:08;4.57;;;3.47;;
14396;SDS011;50653;47.810;13.022;2023-03-24T06:44:34;2.80;;;2.60;;
14396;SDS011;50653;47.810;13.022;2023-03-24T06:47:00;4.53;;;3.47;;
14396;SDS011;50653;47.810;13.022;2023-03-24T06:49:26;4.40;;;3.47;;
14396;SDS011;50653;47.810;13.022;2023-03-24T06:51:51;4.33;;;3.80;;
14396;SDS011;50653;47.810;13.022;2023-03-24T06:54:19;5.30;;;3.50;;
14396;SDS011;50653;47.810;13.022;2023-03-24T06:56:46;3.47;;;3.17;;
14396;SDS011;50653;47.810;13.022;2023-03-24T06:59:14;3.47;;;3.17;;
14396;SDS011;50653;47.810;13.022;2023-03-24T07:01:41;4.73;;;4.23;;
14396;SDS011;50653;47.810;13.022;2023-03-24T07:04:24;3.10;;;3.00;;
14396;SDS011;50653;47.810;13.022;2023-03-24T07:07:06;4.10;;;3.67;;
14396;SDS011;50653;47.810;13.022;2023-03-24T07:09:32;4.40;;;3.23;;
14396;SDS011;50653;47.810;13.022;2023-03-24T07:11:58;3.93;;;3.63;;
14396;SDS011;50653;47.810;13.022;2023-03-24T07:14:26;15.33;;;2.83;;
14396;SDS011;50653;47.810;13.022;2023-03-24T07:16:54;5.67;;;2.90;;
14396;SDS011;50653;47.810;13.022;2023-03-24T07:19:40;7.73;;;3.17;;
14396;SDS011;50653;47.810;13.022;2023-03-24T07:22:26;3.50;;;3.30;;
14396;SDS011;50653;47.810;13.022;2023-03-24T07:25:10;4.33;;;3.23;;
14396;SDS011;50653;47.810;13.022;2023-03-24T07:27:53;4.77;;;4.00;;
14396;SDS011;50653;47.810;13.022;2023-03-24T07:30:21;5.17;;;2.83;;
14396;SDS011;50653;47.810;13.022;2023-03-24T07:32:48;6.90;;;3.37;;
14396;SDS011;50653;47.810;13.022;2023-03-24T07:35:15;3.30;;;3.00;;
14396;SDS011;50653;47.810;13.022;2023-03-24T07:37:42;3.50;;;3.30;;
14396;SDS011;50653;47.810;13.022;2023-03-24T07:40:09;2.90;;;2.70;;
14396;SDS011;50653;47.810;13.022;2023-03-24T07:42:40;3.17;;;2.97;;
14396;SDS011;50653;47.810;13.022;2023-03-24T07:45:25;3.70;;;3.20;;
14396;SDS011;50653;47.810;13.022;2023-03-24T07:47:52;7.67;;;6.97;;
14396;SDS011;50653;47.810;13.022;2023-03-24T07:50:19;3.97;;;3.77;;
14396;SDS011;50653;47.810;13.022;2023-03-24T07:52:48;4.37;;;4.07;;
14396;SDS011;50653;47.810;13.022;2023-03-24T07:55:17;4.50;;;4.10;;
14396;SDS011;50653;47.810;13.022;2023-03-24T07:58:03;3.73;;;3.43;;
14396;SDS011;50653;47.810;13.022;2023-03-24T08:00:29;5.40;;;4.33;;
14396;SDS011;50653;47.810;13.022;2023-03-24T08:03:13;3.90;;;3.60;;
14396;SDS011;50653;47.810;13.022;2023-03-24T08:05:57;6.27;;;3.23;;
14396;SDS011;50653;47.810;13.022;2023-03-24T08:08:44;3.17;;;2.97;;
14396;SDS011;50653;47.810;13.022;2023-03-24T08:11:10;3.43;;;3.30;;
14396;SDS011;50653;47.810;13.022;2023-03-24T08:13:35;4.30;;;4.00;;
14396;SDS011;50653;47.810;13.022;2023-03-24T08:16:01;3.87;;;3.57;;
14396;SDS011;50653;47.810;13.022;2023-03-24T08:18:28;3.90;;;3.60;;
14396;SDS011;50653;47.810;13.022;2023-03-24T08:20:57;7.23;;;3.83;;
14396;SDS011;50653;47.810;13.022;2023-03-24T08:23:23;6.20;;;3.37;;
14396;SDS011;50653;47.810;13.022;2023-03-24T08:25:49;2.70;;;2.50;;
14396;SDS011;50653;47.810;13.022;2023-03-24T08:28:15;3.10;;;2.90;;
14396;SDS011;50653;47.810;13.022;2023-03-24T08:30:41;3.70;;;3.50;;
14396;SDS011;50653;47.810;13.022;2023-03-24T08:33:14;3.63;;;3.43;;
14396;SDS011;50653;47.810;13.022;2023-03-24T08:35:40;3.27;;;3.07;;
14396;SDS011;50653;47.810;13.022;2023-03-24T08:38:07;3.67;;;3.20;;
14396;SDS011;50653;47.810;13.022;2023-03-24T08:40:36;4.57;;;3.30;;
14396;SDS011;50653;47.810;13.022;2023-03-24T08:43:05;4.53;;;4.23;;
14396;SDS011;50653;47.810;13.022;2023-03-24T08:45:33;3.40;;;3.20;;
14396;SDS011;50653;47.810;13.022;2023-03-24T08:48:00;4.43;;;4.03;;
14396;SDS011;50653;47.810;13.022;2023-03-24T08:50:28;11.93;;;10.40;;
14396;SDS011;50653;47.810;13.022;2023-03-24T08:52:56;8.37;;;4.77;;
14396;SDS011;50653;47.810;13.022;2023-03-24T08:55:23;7.30;;;3.50;;
14396;SDS011;50653;47.810;13.022;2023-03-24T08:57:48;3.60;;;3.40;;
14396;SDS011;50653;47.810;13.022;2023-03-24T09:00:15;4.07;;;3.77;;
14396;SDS011;50653;47.810;13.022;2023-03-24T09:02:43;3.93;;;3.73;;
14396;SDS011;50653;47.810;13.022;2023-03-24T09:05:11;4.50;;;3.60;;
14396;SDS011;50653;47.810;13.022;2023-03-24T09:07:39;5.40;;;4.27;;
14396;SDS011;50653;47.810;13.022;2023-03-24T09:10:06;3.43;;;3.23;;
14396;SDS011;50653;47.810;13.022;2023-03-24T09:12:34;3.67;;;3.47;;
14396;SDS011;50653;47.810;13.022;2023-03-24T09:15:01;3.37;;;3.07;;
14396;SDS011;50653;47.810;13.022;2023-03-24T09:17:29;8.33;;;3.83;;
14396;SDS011;50653;47.810;13.022;2023-03-24T09:19:54;4.23;;;4.03;;
14396;SDS011;50653;47.810;13.022;2023-03-24T09:22:20;4.07;;;3.70;;
14396;SDS011;50653;47.810;13.022;2023-03-24T09:24:46;5.77;;;3.13;;
14396;SDS011;50653;47.810;13.022;2023-03-24T09:27:13;5.10;;;3.87;;
14396;SDS011;50653;47.810;13.022;2023-03-24T09:29:40;12.13;;;11.03;;
14396;SDS011;50653;47.810;13.022;2023-03-24T09:32:06;3.87;;;3.40;;
14396;SDS011;50653;47.810;13.022;2023-03-24T09:34:32;3.23;;;3.00;;
14396;SDS011;50653;47.810;13.022;2023-03-24T09:37:00;4.10;;;3.43;;
14396;SDS011;50653;47.810;13.022;2023-03-24T09:39:26;7.37;;;3.37;;
14396;SDS011;50653;47.810;13.022;2023-03-24T09:41:52;3.30;;;3.10;;
14396;SDS011;50653;47.810;13.022;2023-03-24T09:46:56;4.43;;;4.17;;
14396;SDS011;50653;47.810;13.022;2023-03-24T09:49:27;5.20;;;4.33;;
14396;SDS011;50653;47.810;13.022;2023-03-24T09:51:55;3.40;;;3.20;;
14396;SDS011;50653;47.810;13.022;2023-03-24T09:57:28;3.70;;;2.90;;
14396;SDS011;50653;47.810;13.022;2023-03-24T09:59:56;3.83;;;3.53;;
14396;SDS011;50653;47.810;13.022;2023-03-24T10:02:22;3.73;;;3.33;;
14396;SDS011;50653;47.810;13.022;2023-03-24T10:04:48;6.50;;;2.90;;
14396;SDS011;50653;47.810;13.022;2023-03-24T10:07:20;4.60;;;3.83;;
14396;SDS011;50653;47.810;13.022;2023-03-24T10:13:20;5.47;;;4.73;;
14396;SDS011;50653;47.810;13.022;2023-03-24T10:16:29;7.33;;;4.47;;
14396;SDS011;50653;47.810;13.022;2023-03-24T10:19:11;5.60;;;3.97;;
14396;SDS011;50653;47.810;13.022;2023-03-24T10:22:03;5.10;;;4.60;;
14396;SDS011;50653;47.810;13.022;2023-03-24T10:27:13;6.43;;;5.00;;
14396;SDS011;50653;47.810;13.022;2023-03-24T10:29:45;5.33;;;5.03;;
14396;SDS011;50653;47.810;13.022;2023-03-24T10:32:15;5.80;;;5.40;;
14396;SDS011;50653;47.810;13.022;2023-03-24T10:34:47;5.70;;;5.30;;
14396;SDS011;50653;47.810;13.022;2023-03-24T10:37:19;7.87;;;7.07;;
14396;SDS011;50653;47.810;13.022;2023-03-24T10:39:45;9.67;;;8.83;;
14396;SDS011;50653;47.810;13.022;2023-03-24T10:42:18;9.83;;;9.13;;
14396;SDS011;50653;47.810;13.022;2023-03-24T10:44:50;8.27;;;7.60;;
14396;SDS011;50653;47.810;13.022;2023-03-24T10:47:34;6.03;;;5.60;;
14396;SDS011;50653;47.810;13.022;2023-03-24T10:50:03;8.07;;;7.27;;
14396;SDS011;50653;47.810;13.022;2023-03-24T10:52:38;8.40;;;5.73;;
14396;SDS011;50653;47.810;13.022;2023-03-24T10:55:05;9.23;;;6.03;;
14396;SDS011;50653;47.810;13.022;2023-03-24T10:57:32;6.10;;;5.40;;
14396;SDS011;50653;47.810;13.022;2023-03-24T11:00:06;6.57;;;5.90;;
14396;SDS011;50653;47.810;13.022;2023-03-24T11:02:40;6.47;;;5.93;;
14396;SDS011;50653;47.810;13.022;2023-03-24T11:07:47;6.33;;;5.93;;
14396;SDS011;50653;47.810;13.022;2023-03-24T11:10:16;7.07;;;6.37;;
14396;SDS011;50653;47.810;13.022;2023-03-24T11:15:23;6.80;;;5.70;;
14396;SDS011;50653;47.810;13.022;2023-03-24T11:18:06;8.10;;;5.73;;
14396;SDS011;50653;47.810;13.022;2023-03-24T11:20:43;6.77;;;6.17;;
14396;SDS011;50653;47.810;13.022;2023-03-24T11:23:13;5.70;;;5.33;;
14396;SDS011;50653;47.810;13.022;2023-03-24T11:25:45;8.80;;;5.30;;
14396;SDS011;50653;47.810;13.022;2023-03-24T11:28:34;8.50;;;7.00;;
14396;SDS011;50653;47.810;13.022;2023-03-24T11:31:08;8.30;;;6.97;;
14396;SDS011;50653;47.810;13.022;2023-03-24T11:33:40;5.57;;;5.27;;
14396;SDS011;50653;47.810;13.022;2023-03-24T11:39:00;6.70;;;6.20;;
14396;SDS011;50653;47.810;13.022;2023-03-24T11:41:28;7.10;;;6.40;;
14396;SDS011;50653;47.810;13.022;2023-03-24T11:44:13;6.10;;;5.60;;
14396;SDS011;50653;47.810;13.022;2023-03-24T11:46:46;6.97;;;6.47;;
14396;SDS011;50653;47.810;13.022;2023-03-24T11:49:18;6.07;;;5.67;;
14396;SDS011;50653;47.810;13.022;2023-03-24T11:51:48;7.20;;;6.80;;
14396;SDS011;50653;47.810;13.022;2023-03-24T11:54:17;8.90;;;8.30;;
14396;SDS011;50653;47.810;13.022;2023-03-24T11:56:45;16.23;;;8.50;;
14396;SDS011;50653;47.810;13.022;2023-03-24T11:59:26;8.30;;;7.60;;
14396;SDS011;50653;47.810;13.022;2023-03-24T12:07:40;6.10;;;5.63;;
14396;SDS011;50653;47.810;13.022;2023-03-24T12:13:14;4.40;;;4.20;;
14396;SDS011;50653;47.810;13.022;2023-03-24T12:18:24;6.20;;;5.60;;
14396;SDS011;50653;47.810;13.022;2023-03-24T12:23:58;7.47;;;6.90;;
14396;SDS011;50653;47.810;13.022;2023-03-24T12:26:27;7.70;;;7.10;;
14396;SDS011;50653;47.810;13.022;2023-03-24T12:28:56;6.93;;;6.40;;
14396;SDS011;50653;47.810;13.022;2023-03-24T12:42:46;5.63;;;5.23;;
14396;SDS011;50653;47.810;13.022;2023-03-24T12:45:28;5.90;;;5.60;;
14396;SDS011;50653;47.810;13.022;2023-03-24T12:47:58;6.10;;;5.70;;
14396;SDS011;50653;47.810;13.022;2023-03-24T12:50:47;5.00;;;4.70;;
14396;SDS011;50653;47.810;13.022;2023-03-24T12:56:08;5.60;;;5.30;;
14396;SDS011;50653;47.810;13.022;2023-03-24T12:58:50;5.77;;;5.47;;
14396;SDS011;50653;47.810;13.022;2023-03-24T13:01:24;6.33;;;5.93;;
14396;SDS011;50653;47.810;13.022;2023-03-24T13:07:04;6.57;;;6.13;;
14396;SDS011;50653;47.810;13.022;2023-03-24T13:12:23;6.20;;;5.70;;
14396;SDS011;50653;47.810;13.022;2023-03-24T13:17:46;7.20;;;6.70;;
14396;SDS011;50653;47.810;13.022;2023-03-24T13:20:47;7.00;;;6.50;;
14396;SDS011;50653;47.810;13.022;2023-03-24T13:23:41;11.60;;;7.17;;
14396;SDS011;50653;47.810;13.022;2023-03-24T13:31:50;7.50;;;6.90;;
14396;SDS011;50653;47.810;13.022;2023-03-24T13:34:26;7.97;;;7.17;;
14396;SDS011;50653;47.810;13.022;2023-03-24T13:37:06;6.97;;;6.47;;
14396;SDS011;50653;47.810;13.022;2023-03-24T13:39:47;8.13;;;7.53;;
14396;SDS011;50653;47.810;13.022;2023-03-24T13:52:47;7.17;;;6.50;;
14396;SDS011;50653;47.810;13.022;2023-03-24T13:55:17;6.77;;;6.33;;
14396;SDS011;50653;47.810;13.022;2023-03-24T14:08:12;7.60;;;6.87;;
14396;SDS011;50653;47.810;13.022;2023-03-24T14:25:58;6.27;;;5.77;;
14396;SDS011;50653;47.810;13.022;2023-03-24T14:31:07;6.90;;;6.50;;
14396;SDS011;50653;47.810;13.022;2023-03-24T14:36:45;7.00;;;6.40;;
14396;SDS011;50653;47.810;13.022;2023-03-24T14:39:43;6.67;;;6.17;;
14396;SDS011;50653;47.810;13.022;2023-03-24T14:47:17;6.17;;;5.87;;
14396;SDS011;50653;47.810;13.022;2023-03-24T14:49:46;7.00;;;6.50;;
14396;SDS011;50653;47.810;13.022;2023-03-24T15:05:42;7.50;;;6.83;;
14396;SDS011;50653;47.810;13.022;2023-03-24T15:08:15;6.53;;;6.03;;
14396;SDS011;50653;47.810;13.022;2023-03-24T15:10:49;6.37;;;5.80;;
14396;SDS011;50653;47.810;13.022;2023-03-24T15:18:46;7.10;;;6.60;;
14396;SDS011;50653;47.810;13.022;2023-03-24T16:23:51;7.57;;;7.00;;
14396;SDS011;50653;47.810;13.022;2023-03-24T16:33:27;8.43;;;7.73;;
14396;SDS011;50653;47.810;13.022;2023-03-24T16:35:57;9.77;;;8.10;;
14396;SDS011;50653;47.810;13.022;2023-03-24T16:42:06;11.70;;;7.33;;
14396;SDS011;50653;47.810;13.022;2023-03-24T16:44:31;7.20;;;6.60;;
14396;SDS011;50653;47.810;13.022;2023-03-24T16:47:09;7.83;;;7.13;;
14396;SDS011;50653;47.810;13.022;2023-03-24T16:49:35;9.53;;;8.70;;
14396;SDS011;50653;47.810;13.022;2023-03-24T16:52:02;9.10;;;7.93;;
14396;SDS011;50653;47.810;13.022;2023-03-24T16:54:28;8.40;;;7.70;;
14396;SDS011;50653;47.810;13.022;2023-03-24T16:56:56;3.00;;;2.80;;
14396;SDS011;50653;47.810;13.022;2023-03-24T16:59:24;2.40;;;2.30;;
14396;SDS011;50653;47.810;13.022;2023-03-24T17:01:51;1.83;;;1.73;;
14396;SDS011;50653;47.810;13.022;2023-03-24T17:04:18;3.10;;;2.63;;
14396;SDS011;50653;47.810;13.022;2023-03-24T17:06:49;2.47;;;2.27;;
14396;SDS011;50653;47.810;13.022;2023-03-24T17:09:19;3.77;;;2.10;;
14396;SDS011;50653;47.810;13.022;2023-03-24T17:11:46;2.33;;;1.37;;
14396;SDS011;50653;47.810;13.022;2023-03-24T17:14:25;3.33;;;3.03;;
14396;SDS011;50653;47.810;13.022;2023-03-24T17:17:11;4.60;;;1.23;;
14396;SDS011;50653;47.810;13.022;2023-03-24T17:19:46;1.47;;;1.37;;
14396;SDS011;50653;47.810;13.022;2023-03-24T17:33:10;2.87;;;1.20;;
14396;SDS011;50653;47.810;13.022;2023-03-24T17:36:46;2.17;;;1.40;;
14396;SDS011;50653;47.810;13.022;2023-03-24T17:39:18;1.90;;;1.63;;
14396;SDS011;50653;47.810;13.022;2023-03-24T17:41:45;2.50;;;1.80;;
14396;SDS011;50653;47.810;13.022;2023-03-24T17:44:11;2.83;;;1.07;;
14396;SDS011;50653;47.810;13.022;2023-03-24T17:46:36;1.40;;;1.30;;
14396;SDS011;50653;47.810;13.022;2023-03-24T17:49:05;2.20;;;1.17;;
14396;SDS011;50653;47.810;13.022;2023-03-24T17:51:31;1.77;;;1.57;;
14396;SDS011;50653;47.810;13.022;2023-03-24T17:53:57;4.03;;;2.27;;
14396;SDS011;50653;47.810;13.022;2023-03-24T17:56:23;3.20;;;1.30;;
14396;SDS011;50653;47.810;13.022;2023-03-24T17:58:49;1.87;;;1.77;;
14396;SDS011;50653;47.810;13.022;2023-03-24T18:01:42;7.47;;;1.83;;
14396;SDS011;50653;47.810;13.022;2023-03-24T18:05:22;0.87;;;0.73;;
14396;SDS011;50653;47.810;13.022;2023-03-24T18:07:50;0.97;;;0.70;;
14396;SDS011;50653;47.810;13.022;2023-03-24T18:10:16;4.00;;;0.60;;
14396;SDS011;50653;47.810;13.022;2023-03-24T18:12:42;1.40;;;1.30;;
14396;SDS011;50653;47.810;13.022;2023-03-24T18:15:08;2.70;;;0.80;;
14396;SDS011;50653;47.810;13.022;2023-03-24T18:17:40;2.33;;;1.10;;
14396;SDS011;50653;47.810;13.022;2023-03-24T18:20:46;0.73;;;0.70;;
14396;SDS011;50653;47.810;13.022;2023-03-24T18:23:12;0.60;;;0.50;;
14396;SDS011;50653;47.810;13.022;2023-03-24T18:25:40;0.90;;;0.60;;
14396;SDS011;50653;47.810;13.022;2023-03-24T18:28:06;1.17;;;0.60;;
14396;SDS011;50653;47.810;13.022;2023-03-24T18:30:33;1.00;;;0.90;;
14396;SDS011;50653;47.810;13.022;2023-03-24T18:43:57;1.17;;;0.77;;
14396;SDS011;50653;47.810;13.022;2023-03-24T18:46:24;2.73;;;1.83;;
14396;SDS011;50653;47.810;13.022;2023-03-24T18:56:35;1.70;;;0.90;;
14396;SDS011;50653;47.810;13.022;2023-03-24T19:06:34;2.13;;;2.00;;
14396;SDS011;50653;47.810;13.022;2023-03-24T19:09:25;1.00;;;0.90;;
14396;SDS011;50653;47.810;13.022;2023-03-24T19:11:52;1.77;;;1.27;;
14396;SDS011;50653;47.810;13.022;2023-03-24T19:14:32;1.70;;;0.90;;
14396;SDS011;50653;47.810;13.022;2023-03-24T19:17:20;1.57;;;1.10;;
14396;SDS011;50653;47.810;13.022;2023-03-24T19:19:52;1.47;;;1.00;;
14396;SDS011;50653;47.810;13.022;2023-03-24T19:22:23;9.67;;;1.17;;
14396;SDS011;50653;47.810;13.022;2023-03-24T19:28:23;1.67;;;1.57;;
14396;SDS011;50653;47.810;13.022;2023-03-24T19:35:08;0.80;;;0.70;;
14396;SDS011;50653;47.810;13.022;2023-03-24T19:37:54;1.00;;;0.83;;
14396;SDS011;50653;47.810;13.022;2023-03-24T19:40:38;1.37;;;1.27;;
14396;SDS011;50653;47.810;13.022;2023-03-24T19:43:07;1.73;;;1.63;;
14396;SDS011;50653;47.810;13.022;2023-03-24T19:45:33;2.20;;;1.07;;
14396;SDS011;50653;47.810;13.022;2023-03-24T19:47:59;1.70;;;1.20;;
14396;SDS011;50653;47.810;13.022;2023-03-24T19:54:12;1.17;;;0.80;;
14396;SDS011;50653;47.810;13.022;2023-03-24T19:56:45;1.93;;;0.90;;
14396;SDS011;50653;47.810;13.022;2023-03-24T19:59:11;2.43;;;1.20;;
14396;SDS011;50653;47.810;13.022;2023-03-24T20:01:56;8.20;;;2.00;;
14396;SDS011;50653;47.810;13.022;2023-03-24T20:04:22;1.10;;;1.00;;
14396;SDS011;50653;47.810;13.022;2023-03-24T20:06:52;1.00;;;0.90;;
14396;SDS011;50653;47.810;13.022;2023-03-24T20:09:27;3.20;;;0.60;;
14396;SDS011;50653;47.810;13.022;2023-03-24T20:12:03;1.10;;;0.93;;
14396;SDS011;50653;47.810;13.022;2023-03-24T20:14:32;0.87;;;0.70;;
14396;SDS011;50653;47.810;13.022;2023-03-24T20:17:35;0.70;;;0.70;;
14396;SDS011;50653;47.810;13.022;2023-03-24T20:20:28;1.80;;;1.10;;
14396;SDS011;50653;47.810;13.022;2023-03-24T20:22:54;2.90;;;0.80;;